Time;durP1;ratioP1;P1;durP2;ratioP2;P2;SDS_P1;SDS_P2;PMS_P1;PMS_P2;Temp;Humidity;BMP_temperature;BMP_pressure;BME280_temperature;BME280_humidity;BME280_pressure;Samples;Min_cycle;Max_cycle;Signal;HPM_P1;HPM_P2
2023/09/28 00:02:58;;;;;;;1.95;1.58;;;24.30;53.50;;;;;;5035181;28;20029;-63
2023/09/28 00:05:26;;;;;;;1.90;1.42;;;24.40;53.60;;;;;;5034162;28;20041;-65
2023/09/28 00:07:52;;;;;;;3.08;1.63;;;24.40;53.50;;;;;;5040929;28;20094;-62
2023/09/28 00:10:18;;;;;;;2.67;1.65;;;24.40;53.50;;;;;;5024102;28;20029;-65
2023/09/28 00:12:46;;;;;;;2.30;1.60;;;24.40;53.50;;;;;;5043721;28;20022;-63
2023/09/28 00:15:12;;;;;;;2.33;1.65;;;24.40;53.50;;;;;;5039241;28;20025;-62
2023/09/28 00:17:39;;;;;;;2.60;1.50;;;24.30;53.40;;;;;;5045783;28;20050;-67
2023/09/28 00:20:13;;;;;;;2.25;1.70;;;24.30;53.40;;;;;;5043233;28;20033;-65
2023/09/28 00:22:41;;;;;;;1.58;1.42;;;24.40;53.40;;;;;;5047327;28;20033;-64
2023/09/28 00:25:11;;;;;;;2.13;1.75;;;24.30;53.40;;;;;;5038149;28;20124;-65
2023/09/28 00:27:39;;;;;;;1.85;1.40;;;24.30;53.30;;;;;;5041973;28;20108;-62
2023/09/28 00:30:08;;;;;;;2.85;1.40;;;24.30;53.30;;;;;;5040590;28;20455;-65
2023/09/28 00:32:36;;;;;;;2.38;1.60;;;24.30;53.90;;;;;;5026045;28;21227;-65
2023/09/28 00:35:04;;;;;;;1.98;1.42;;;24.30;53.30;;;;;;5045644;28;20017;-62
2023/09/28 00:37:31;;;;;;;2.72;1.60;;;24.30;53.20;;;;;;5043448;28;20021;-64
2023/09/28 00:39:58;;;;;;;2.38;1.48;;;24.30;53.20;;;;;;5023422;28;20017;-61
2023/09/28 00:42:30;;;;;;;1.73;1.55;;;24.40;53.30;;;;;;5042144;28;20101;-65
2023/09/28 00:44:56;;;;;;;2.65;1.60;;;24.30;53.20;;;;;;5017635;28;20061;-63
2023/09/28 00:47:23;;;;;;;2.80;1.90;;;24.30;53.20;;;;;;5028621;28;20037;-62
2023/09/28 00:49:51;;;;;;;2.00;1.70;;;24.30;53.80;;;;;;5044380;28;20055;-62
2023/09/28 00:52:17;;;;;;;2.08;1.50;;;24.30;53.20;;;;;;5041732;28;20128;-62
2023/09/28 00:54:49;;;;;;;2.20;1.40;;;24.30;53.20;;;;;;5022468;28;20029;-64
2023/09/28 00:57:16;;;;;;;1.65;1.40;;;24.30;53.20;;;;;;5023522;28;20121;-64
2023/09/28 00:59:42;;;;;;;2.90;1.73;;;24.30;53.10;;;;;;5027086;28;21774;-64
2023/09/28 01:02:08;;;;;;;2.13;1.50;;;24.30;53.10;;;;;;5028158;28;20128;-63
2023/09/28 01:04:35;;;;;;;2.55;1.50;;;24.30;53.10;;;;;;5045347;28;20052;-64
2023/09/28 01:07:04;;;;;;;1.75;1.40;;;24.30;53.10;;;;;;5025350;28;20049;-64
2023/09/28 01:09:30;;;;;;;1.67;1.52;;;24.30;53.10;;;;;;5028247;28;20025;-63
2023/09/28 01:11:57;;;;;;;2.10;1.50;;;24.30;53.10;;;;;;5024011;28;20376;-65
2023/09/28 01:14:24;;;;;;;2.03;1.50;;;24.30;53.70;;;;;;5023831;28;20025;-65
2023/09/28 01:16:50;;;;;;;3.85;2.42;;;24.30;53.10;;;;;;5042788;28;20053;-63
2023/09/28 01:19:16;;;;;;;7.97;4.18;;;24.30;53.10;;;;;;5023433;28;20127;-64
2023/09/28 01:21:43;;;;;;;6.82;3.60;;;24.30;53.10;;;;;;5037403;28;20025;-62
2023/09/28 01:24:09;;;;;;;6.57;3.60;;;24.30;53.70;;;;;;5024568;28;20037;-62
2023/09/28 01:26:35;;;;;;;5.05;2.90;;;24.30;53.10;;;;;;5034934;28;20440;-63
2023/09/28 01:29:01;;;;;;;5.05;2.80;;;24.30;53.10;;;;;;5006580;28;20040;-64
2023/09/28 01:31:27;;;;;;;4.13;2.67;;;24.30;53.20;;;;;;5022451;28;20033;-62
2023/09/28 01:33:54;;;;;;;3.92;2.58;;;24.30;53.10;;;;;;5023990;28;20109;-63
2023/09/28 01:36:20;;;;;;;3.22;2.10;;;24.30;53.10;;;;;;5028766;28;20648;-64
2023/09/28 01:39:00;;;;;;;2.55;1.90;;;24.30;53.10;;;;;;5045498;28;20052;-62
2023/09/28 01:41:28;;;;;;;2.88;1.88;;;24.30;53.10;;;;;;5009037;28;20061;-63
2023/09/28 01:43:54;;;;;;;2.50;1.70;;;24.30;53.10;;;;;;5040776;28;20047;-62
2023/09/28 01:46:20;;;;;;;2.17;1.65;;;24.30;53.10;;;;;;5020866;28;20096;-66
2023/09/28 01:48:46;;;;;;;3.00;1.70;;;24.30;53.10;;;;;;5044407;28;20428;-65
2023/09/28 01:51:12;;;;;;;2.25;1.77;;;24.30;53.20;;;;;;5039935;28;20060;-61
2023/09/28 01:53:38;;;;;;;2.08;1.85;;;24.30;53.20;;;;;;5028462;28;20040;-64
2023/09/28 01:56:04;;;;;;;3.35;1.70;;;24.30;53.20;;;;;;5040995;28;20032;-63
2023/09/28 01:58:31;;;;;;;2.40;1.90;;;24.30;53.20;;;;;;5022091;28;20309;-60
2023/09/28 02:00:57;;;;;;;1.92;1.65;;;24.30;53.20;;;;;;5022729;28;20020;-62
2023/09/28 02:03:25;;;;;;;2.13;1.60;;;24.30;53.20;;;;;;5021815;28;20074;-62
2023/09/28 02:05:52;;;;;;;2.22;1.60;;;24.30;53.30;;;;;;5023809;28;20051;-62
2023/09/28 02:08:19;;;;;;;3.50;1.85;;;24.20;53.20;;;;;;5039941;28;20048;-63
2023/09/28 02:10:45;;;;;;;2.35;2.05;;;24.20;53.20;;;;;;5022829;28;20344;-62
2023/09/28 02:13:12;;;;;;;1.85;1.50;;;24.20;53.20;;;;;;5045767;28;20064;-62
2023/09/28 02:15:41;;;;;;;1.48;1.27;;;24.20;53.30;;;;;;5022266;28;20047;-61
2023/09/28 02:18:07;;;;;;;2.75;1.67;;;24.30;53.90;;;;;;5022344;28;20040;-61
2023/09/28 02:20:34;;;;;;;2.42;1.90;;;24.30;53.40;;;;;;5045655;28;20033;-63
2023/09/28 02:23:00;;;;;;;2.92;1.95;;;24.20;53.30;;;;;;5044422;28;20478;-63
2023/09/28 02:25:26;;;;;;;2.40;1.63;;;24.20;53.30;;;;;;5046486;28;20130;-63
2023/09/28 02:27:53;;;;;;;2.58;1.60;;;24.20;53.40;;;;;;5021714;28;20060;-59
2023/09/28 02:30:22;;;;;;;2.97;1.80;;;24.30;53.40;;;;;;5044191;28;20029;-62
2023/09/28 02:32:52;;;;;;;2.60;1.70;;;24.20;53.40;;;;;;5044284;28;20075;-61
2023/09/28 02:35:19;;;;;;;2.22;1.67;;;24.20;53.40;;;;;;5045599;28;21345;-62
2023/09/28 02:37:48;;;;;;;1.95;1.48;;;24.20;53.40;;;;;;5032039;28;20036;-62
2023/09/28 02:40:15;;;;;;;2.17;1.65;;;24.20;53.40;;;;;;5044414;28;20033;-62
2023/09/28 02:42:44;;;;;;;2.10;1.60;;;24.20;53.50;;;;;;5024282;28;20433;-62
2023/09/28 02:45:11;;;;;;;2.17;1.60;;;24.20;53.50;;;;;;5046587;28;20074;-61
2023/09/28 02:47:41;;;;;;;2.35;1.80;;;24.20;53.50;;;;;;5026600;28;20133;-62
2023/09/28 02:50:11;;;;;;;2.72;1.58;;;24.20;53.50;;;;;;5045444;28;20405;-64
2023/09/28 02:52:42;;;;;;;3.25;1.67;;;24.20;53.50;;;;;;5021748;28;20451;-64
2023/09/28 02:55:13;;;;;;;1.67;1.45;;;24.20;53.60;;;;;;5026516;28;20029;-62
2023/09/28 02:57:41;;;;;;;3.80;1.60;;;24.20;53.60;;;;;;5043133;28;20052;-64
2023/09/28 03:00:17;;;;;;;2.05;1.63;;;24.20;53.60;;;;;;5045581;28;20352;-60
2023/09/28 03:02:44;;;;;;;2.40;1.67;;;24.20;53.60;;;;;;5044282;28;20421;-65
2023/09/28 03:05:10;;;;;;;2.03;1.25;;;24.20;53.70;;;;;;5045497;28;20048;-62
2023/09/28 03:07:39;;;;;;;2.40;1.70;;;24.20;53.70;;;;;;5037934;28;20040;-64
2023/09/28 03:10:06;;;;;;;2.35;1.50;;;24.20;53.80;;;;;;5024179;28;20029;-63
2023/09/28 03:12:32;;;;;;;1.80;1.40;;;24.20;53.80;;;;;;5043934;28;20094;-61
2023/09/28 03:14:58;;;;;;;2.00;1.55;;;24.20;53.80;;;;;;5044201;28;20025;-64
2023/09/28 03:17:24;;;;;;;2.38;1.63;;;24.20;53.80;;;;;;5039913;28;20029;-63
2023/09/28 03:19:51;;;;;;;1.98;1.60;;;24.20;53.90;;;;;;5039788;28;20036;-62
2023/09/28 03:22:19;;;;;;;2.97;1.50;;;24.20;53.90;;;;;;5041489;28;20320;-60
2023/09/28 03:24:47;;;;;;;2.25;1.55;;;24.10;53.90;;;;;;5027200;28;20048;-62
2023/09/28 03:27:13;;;;;;;2.38;1.60;;;24.10;53.90;;;;;;5023541;28;20041;-61
2023/09/28 03:29:41;;;;;;;1.60;1.45;;;24.20;53.90;;;;;;5023996;28;20123;-65
2023/09/28 03:32:07;;;;;;;2.25;1.60;;;24.20;54.00;;;;;;5041696;28;20412;-62
2023/09/28 03:34:33;;;;;;;2.25;1.48;;;24.10;53.90;;;;;;5045717;28;20064;-63
2023/09/28 03:36:59;;;;;;;2.90;1.38;;;24.20;54.00;;;;;;5044681;28;20102;-61
2023/09/28 03:39:25;;;;;;;1.83;1.48;;;24.20;54.00;;;;;;5042680;28;20033;-61
2023/09/28 03:41:51;;;;;;;1.90;1.42;;;24.10;54.00;;;;;;5044266;28;20128;-63
2023/09/28 03:44:17;;;;;;;2.35;1.77;;;24.10;54.00;;;;;;5021297;28;20041;-62
2023/09/28 03:46:43;;;;;;;2.35;1.60;;;24.10;54.00;;;;;;5023543;28;20398;-60
2023/09/28 03:49:09;;;;;;;1.75;1.40;;;24.10;54.00;;;;;;5043158;28;20061;-62
2023/09/28 03:51:35;;;;;;;3.05;1.88;;;24.10;54.10;;;;;;5021167;28;20049;-60
2023/09/28 03:54:01;;;;;;;2.53;1.70;;;24.10;54.10;;;;;;5025793;28;20112;-64
2023/09/28 03:56:28;;;;;;;2.10;1.42;;;24.10;54.10;;;;;;5044588;28;20032;-65
2023/09/28 03:58:54;;;;;;;1.83;1.48;;;24.10;54.10;;;;;;5040726;28;20596;-61
2023/09/28 04:01:20;;;;;;;2.55;1.50;;;24.10;54.10;;;;;;5044065;28;20017;-63
2023/09/28 04:03:46;;;;;;;2.63;1.73;;;24.10;54.10;;;;;;5043595;28;20429;-60
2023/09/28 04:06:13;;;;;;;1.80;1.30;;;24.10;54.10;;;;;;5024195;28;20379;-63
2023/09/28 04:08:39;;;;;;;2.67;1.58;;;24.10;54.20;;;;;;5040601;28;21160;-62
2023/09/28 04:11:05;;;;;;;2.70;1.83;;;24.10;54.20;;;;;;5044210;28;20021;-62
2023/09/28 04:13:31;;;;;;;3.75;1.70;;;24.10;54.20;;;;;;5043612;28;20053;-59
2023/09/28 04:15:57;;;;;;;2.13;1.60;;;24.10;54.20;;;;;;5045015;28;20079;-63
2023/09/28 04:18:23;;;;;;;2.13;1.50;;;24.10;54.20;;;;;;5036133;28;20044;-59
2023/09/28 04:20:49;;;;;;;2.30;1.67;;;24.10;54.30;;;;;;5016736;28;20044;-59
2023/09/28 04:23:15;;;;;;;2.92;1.70;;;24.10;54.30;;;;;;5042789;28;20114;-60
2023/09/28 04:25:42;;;;;;;2.42;1.48;;;24.10;54.30;;;;;;5042362;28;20420;-61
2023/09/28 04:28:08;;;;;;;2.75;1.73;;;24.10;54.40;;;;;;5043476;28;20090;-59
2023/09/28 04:30:34;;;;;;;2.95;1.60;;;24.10;54.40;;;;;;5043485;28;20459;-61
2023/09/28 04:33:00;;;;;;;3.00;1.58;;;24.10;54.40;;;;;;5023840;28;20089;-61
2023/09/28 04:35:26;;;;;;;2.33;1.70;;;24.00;54.40;;;;;;5038578;28;20338;-63
2023/09/28 04:37:52;;;;;;;2.78;1.98;;;24.10;54.50;;;;;;5043375;28;20043;-60
2023/09/28 04:40:24;;;;;;;2.13;1.67;;;24.10;54.50;;;;;;5042395;28;20053;-60
2023/09/28 04:42:50;;;;;;;2.17;1.60;;;24.10;54.50;;;;;;5044756;28;20394;-60
2023/09/28 04:45:16;;;;;;;2.53;1.40;;;24.10;54.60;;;;;;5044583;28;20441;-61
2023/09/28 04:47:42;;;;;;;1.35;1.20;;;24.10;54.60;;;;;;5042542;28;20044;-60
2023/09/28 04:50:09;;;;;;;2.15;1.70;;;24.00;54.60;;;;;;5020208;28;20198;-62
2023/09/28 04:52:35;;;;;;;2.25;1.65;;;24.10;54.60;;;;;;5044482;28;20025;-62
2023/09/28 04:55:01;;;;;;;2.00;1.60;;;24.10;54.70;;;;;;5040351;28;20018;-59
2023/09/28 04:57:27;;;;;;;2.05;1.58;;;24.00;54.70;;;;;;5023170;28;20035;-63
2023/09/28 04:59:53;;;;;;;2.15;1.80;;;24.00;54.60;;;;;;5038672;28;20030;-63
2023/09/28 05:02:20;;;;;;;4.40;1.48;;;24.00;54.70;;;;;;5044435;28;20032;-61
2023/09/28 05:04:46;;;;;;;2.75;1.90;;;24.10;54.70;;;;;;5025102;28;20120;-60
2023/09/28 05:07:11;;;;;;;3.63;1.48;;;24.00;54.70;;;;;;5022913;28;20575;-61
2023/09/28 05:09:38;;;;;;;2.67;1.67;;;24.10;54.70;;;;;;5041029;28;20298;-59
2023/09/28 05:12:04;;;;;;;2.33;1.80;;;24.00;54.70;;;;;;5045848;28;20134;-63
2023/09/28 05:14:31;;;;;;;2.78;1.75;;;24.00;54.70;;;;;;5047095;28;20132;-65
2023/09/28 05:16:56;;;;;;;2.70;1.88;;;24.00;54.70;;;;;;5045431;28;20115;-63
2023/09/28 05:19:22;;;;;;;2.75;1.90;;;24.00;54.80;;;;;;5011454;28;20373;-64
2023/09/28 05:21:49;;;;;;;2.00;1.70;;;24.00;54.80;;;;;;5047170;28;20040;-62
2023/09/28 05:24:15;;;;;;;2.70;1.85;;;24.00;54.80;;;;;;5011385;28;20086;-61
2023/09/28 05:26:41;;;;;;;2.63;2.00;;;24.00;54.90;;;;;;5046060;28;20048;-60
2023/09/28 05:29:07;;;;;;;3.50;1.63;;;24.00;54.90;;;;;;5047739;28;20025;-62
2023/09/28 05:31:33;;;;;;;2.50;1.60;;;24.00;54.90;;;;;;5044541;28;20381;-59
2023/09/28 05:33:59;;;;;;;2.15;1.73;;;24.00;54.90;;;;;;5047572;28;20081;-62
2023/09/28 05:36:25;;;;;;;2.38;1.70;;;24.00;55.00;;;;;;5044419;28;20064;-60
2023/09/28 05:38:51;;;;;;;2.05;1.50;;;24.00;55.00;;;;;;5040928;28;20032;-64
2023/09/28 05:41:17;;;;;;;2.58;1.90;;;24.00;55.00;;;;;;5044415;28;20203;-62
2023/09/28 05:43:43;;;;;;;2.30;1.95;;;24.00;55.00;;;;;;5028005;28;20412;-62
2023/09/28 05:46:09;;;;;;;2.38;1.83;;;24.00;55.00;;;;;;5028292;28;20455;-62
2023/09/28 05:48:36;;;;;;;2.50;1.70;;;24.00;55.00;;;;;;5024933;28;20154;-64
2023/09/28 05:51:03;;;;;;;2.30;1.67;;;24.00;55.10;;;;;;5044580;28;20348;-65
2023/09/28 05:53:29;;;;;;;2.30;1.67;;;24.00;55.10;;;;;;5045730;28;20025;-63
2023/09/28 05:55:55;;;;;;;2.63;1.60;;;24.00;55.10;;;;;;5042174;28;20767;-65
2023/09/28 05:58:21;;;;;;;2.53;1.80;;;24.00;55.00;;;;;;5046723;28;20087;-62
2023/09/28 06:00:47;;;;;;;2.65;1.85;;;24.00;55.00;;;;;;5045441;28;20033;-63
2023/09/28 06:03:13;;;;;;;3.60;1.80;;;24.00;55.00;;;;;;5029673;28;20158;-63
2023/09/28 06:05:40;;;;;;;2.95;1.60;;;24.00;55.00;;;;;;5020126;28;20032;-62
2023/09/28 06:08:06;;;;;;;2.53;1.85;;;24.00;55.00;;;;;;5042876;28;20620;-64
2023/09/28 06:10:33;;;;;;;1.75;1.58;;;24.00;55.00;;;;;;5043829;28;20029;-64
2023/09/28 06:12:59;;;;;;;3.05;1.75;;;24.00;55.00;;;;;;5047052;28;20124;-62
2023/09/28 06:15:25;;;;;;;3.08;1.55;;;24.00;55.00;;;;;;5044608;28;20368;-62
2023/09/28 06:17:51;;;;;;;2.55;1.80;;;24.00;55.00;;;;;;5040592;28;20025;-63
2023/09/28 06:20:21;;;;;;;2.47;1.80;;;24.00;55.00;;;;;;5025962;28;20423;-66
2023/09/28 06:22:46;;;;;;;3.03;1.65;;;24.00;55.00;;;;;;5046669;28;20500;-62
2023/09/28 06:25:12;;;;;;;2.38;1.80;;;24.00;54.90;;;;;;5040973;28;20404;-64
2023/09/28 06:27:39;;;;;;;3.47;1.83;;;24.00;55.00;;;;;;5042640;28;20048;-64
2023/09/28 06:30:05;;;;;;;2.45;1.77;;;24.00;54.90;;;;;;5022697;28;20094;-65
2023/09/28 06:32:31;;;;;;;2.28;1.80;;;24.00;55.00;;;;;;5024299;28;20041;-63
2023/09/28 06:34:57;;;;;;;2.70;1.80;;;24.00;55.00;;;;;;5042226;28;20026;-61
2023/09/28 06:37:24;;;;;;;2.28;1.75;;;24.00;55.00;;;;;;5017841;28;20104;-65
2023/09/28 06:39:50;;;;;;;2.53;1.60;;;24.00;55.00;;;;;;5039785;28;20090;-64
2023/09/28 06:42:16;;;;;;;2.75;2.08;;;24.00;55.00;;;;;;5041539;28;20414;-62
2023/09/28 06:44:42;;;;;;;2.63;1.67;;;24.00;55.00;;;;;;5039541;28;20060;-65
2023/09/28 06:47:08;;;;;;;6.05;1.88;;;24.00;55.00;;;;;;5024371;28;20302;-62
2023/09/28 06:49:34;;;;;;;2.88;2.03;;;24.00;55.00;;;;;;5044825;28;20437;-65
2023/09/28 06:52:01;;;;;;;3.78;1.83;;;24.00;55.00;;;;;;5047175;28;20045;-63
2023/09/28 06:54:27;;;;;;;3.03;1.98;;;24.00;55.00;;;;;;5045934;28;20037;-64
2023/09/28 06:56:53;;;;;;;3.20;2.20;;;24.00;55.00;;;;;;5024449;28;20079;-63
2023/09/28 06:59:19;;;;;;;3.85;1.90;;;24.00;55.00;;;;;;5045599;28;20029;-64
2023/09/28 07:01:48;;;;;;;3.45;1.70;;;24.00;55.00;;;;;;5050168;28;20025;-64
2023/09/28 07:04:15;;;;;;;2.90;1.70;;;24.00;54.90;;;;;;5029783;28;20060;-67
2023/09/28 07:06:41;;;;;;;3.10;1.77;;;24.00;54.90;;;;;;5023574;28;20409;-65
2023/09/28 07:09:07;;;;;;;3.83;2.10;;;24.00;54.90;;;;;;5002273;28;20033;-62
2023/09/28 07:11:34;;;;;;;2.85;1.77;;;24.00;54.80;;;;;;5024305;28;20111;-65
2023/09/28 07:14:00;;;;;;;2.60;1.58;;;24.00;54.70;;;;;;5043990;28;20029;-65
2023/09/28 07:16:26;;;;;;;4.93;2.15;;;24.00;54.70;;;;;;5018960;28;20432;-64
2023/09/28 07:18:52;;;;;;;3.30;1.60;;;24.00;54.70;;;;;;5043173;28;20033;-65
2023/09/28 07:21:18;;;;;;;3.17;1.70;;;24.00;54.60;;;;;;5025409;28;20029;-65
2023/09/28 07:23:44;;;;;;;3.05;1.90;;;24.00;54.60;;;;;;5051516;28;20082;-63
2023/09/28 07:26:16;;;;;;;3.55;1.95;;;24.00;54.60;;;;;;5046664;28;20063;-64
2023/09/28 07:28:45;;;;;;;4.10;2.38;;;24.00;54.50;;;;;;5032658;28;20421;-62
2023/09/28 07:31:13;;;;;;;4.22;1.80;;;24.00;54.50;;;;;;5022753;28;20467;-63
2023/09/28 07:33:40;;;;;;;4.10;2.22;;;24.00;54.40;;;;;;5044215;28;20068;-62
2023/09/28 07:36:07;;;;;;;3.70;2.15;;;24.00;54.30;;;;;;5046822;28;20040;-69
2023/09/28 07:38:33;;;;;;;4.97;2.03;;;24.00;54.30;;;;;;5027483;28;20033;-66
2023/09/28 07:41:01;;;;;;;3.53;1.67;;;24.00;54.20;;;;;;5046660;28;21182;-62
2023/09/28 07:43:28;;;;;;;3.13;1.65;;;24.00;54.20;;;;;;5044937;28;20047;-62
2023/09/28 07:45:54;;;;;;;4.68;1.85;;;24.00;54.10;;;;;;5044613;28;20445;-66
2023/09/28 07:48:20;;;;;;;4.32;1.92;;;24.00;54.10;;;;;;5045136;28;20186;-64
2023/09/28 07:50:46;;;;;;;4.45;1.95;;;24.00;54.00;;;;;;5026203;28;20028;-62
2023/09/28 07:53:12;;;;;;;4.50;1.80;;;24.00;54.00;;;;;;5046745;28;20334;-65
2023/09/28 07:55:41;;;;;;;5.15;2.30;;;24.00;53.90;;;;;;5046316;28;20029;-64
2023/09/28 07:58:07;;;;;;;4.38;2.00;;;24.00;53.90;;;;;;5044710;28;20117;-64
2023/09/28 08:00:33;;;;;;;5.20;2.08;;;24.00;53.80;;;;;;5037307;28;20131;-62
2023/09/28 08:03:00;;;;;;;5.63;2.05;;;24.00;53.70;;;;;;5039917;28;20190;-62
2023/09/28 08:05:26;;;;;;;4.38;2.10;;;24.00;53.60;;;;;;5012827;28;20147;-64
2023/09/28 08:07:52;;;;;;;5.05;2.40;;;24.00;53.60;;;;;;5039507;28;20120;-64
2023/09/28 08:10:18;;;;;;;7.38;1.92;;;24.00;53.50;;;;;;5023982;28;20216;-62
2023/09/28 08:12:46;;;;;;;4.22;1.70;;;24.00;53.50;;;;;;5038711;28;20025;-65
2023/09/28 08:15:12;;;;;;;4.93;2.00;;;24.00;53.40;;;;;;5040424;28;20025;-67
2023/09/28 08:17:39;;;;;;;5.88;2.20;;;24.00;53.30;;;;;;5036855;28;20048;-64
2023/09/28 08:20:07;;;;;;;6.00;2.30;;;24.00;53.30;;;;;;5038249;28;20074;-63
2023/09/28 08:22:34;;;;;;;6.60;2.42;;;24.00;53.20;;;;;;5025021;28;20093;-65
2023/09/28 08:25:00;;;;;;;7.03;2.63;;;24.00;53.20;;;;;;5035248;28;20124;-64
2023/09/28 08:27:26;;;;;;;6.03;2.17;;;24.10;53.20;;;;;;5038310;28;20511;-63
2023/09/28 08:29:52;;;;;;;6.20;2.38;;;24.00;53.10;;;;;;5038127;28;20131;-61
2023/09/28 08:32:18;;;;;;;5.97;2.38;;;24.00;53.00;;;;;;5047389;28;20082;-66
2023/09/28 08:34:44;;;;;;;4.97;1.75;;;24.00;53.00;;;;;;5038102;28;20068;-65
2023/09/28 08:37:10;;;;;;;5.53;2.25;;;24.10;53.00;;;;;;5052673;28;20041;-64
2023/09/28 08:39:39;;;;;;;4.55;1.83;;;24.10;52.90;;;;;;5045539;28;20428;-65
2023/09/28 08:42:14;;;;;;;4.88;2.15;;;24.10;52.90;;;;;;5031521;28;20033;-67
2023/09/28 08:44:41;;;;;;;5.78;2.40;;;24.10;52.80;;;;;;5053972;28;20113;-63
2023/09/28 08:47:17;;;;;;;5.10;2.08;;;24.10;52.80;;;;;;5037856;28;20049;-66
2023/09/28 08:49:47;;;;;;;7.25;2.33;;;24.10;52.70;;;;;;5034023;28;20124;-66
2023/09/28 08:52:16;;;;;;;6.03;2.47;;;24.10;52.70;;;;;;5049227;28;20103;-64
2023/09/28 08:54:42;;;;;;;5.00;2.08;;;24.10;52.60;;;;;;5045601;28;20044;-61
2023/09/28 08:57:11;;;;;;;6.43;2.40;;;24.10;52.50;;;;;;5020613;28;20048;-67
2023/09/28 08:59:39;;;;;;;9.65;2.58;;;24.10;52.50;;;;;;5051515;28;20025;-65
2023/09/28 09:02:06;;;;;;;5.97;2.25;;;24.10;52.40;;;;;;5038542;28;20416;-66
2023/09/28 09:04:35;;;;;;;7.45;2.42;;;24.10;52.90;;;;;;5051533;28;20036;-58
2023/09/28 09:07:04;;;;;;;5.90;2.08;;;24.10;52.20;;;;;;5048546;28;20116;-61
2023/09/28 09:09:32;;;;;;;7.20;2.55;;;24.10;52.10;;;;;;5020179;28;20448;-62
2023/09/28 09:12:03;;;;;;;7.53;2.47;;;24.10;52.10;;;;;;5019106;28;20519;-65
2023/09/28 09:14:30;;;;;;;5.43;2.17;;;24.10;52.10;;;;;;5044967;28;20107;-62
2023/09/28 09:16:55;;;;;;;6.28;2.47;;;24.10;52.10;;;;;;5030615;28;20072;-64
2023/09/28 09:19:22;;;;;;;6.68;2.35;;;24.10;52.00;;;;;;5048574;28;20032;-64
2023/09/28 09:21:49;;;;;;;7.68;2.17;;;24.10;51.90;;;;;;5022679;28;20436;-61
2023/09/28 09:24:18;;;;;;;5.72;2.15;;;24.20;51.90;;;;;;5047741;28;20029;-62
2023/09/28 09:26:46;;;;;;;9.05;2.17;;;24.20;51.80;;;;;;5048832;28;20087;-62
2023/09/28 09:29:14;;;;;;;6.60;2.25;;;24.20;51.70;;;;;;5049719;28;20127;-63
2023/09/28 09:31:44;;;;;;;8.23;2.17;;;24.20;51.60;;;;;;5045487;28;20039;-61
2023/09/28 09:34:12;;;;;;;5.53;1.73;;;24.20;51.50;;;;;;5047070;28;20440;-61
2023/09/28 09:36:39;;;;;;;6.18;2.28;;;24.20;52.00;;;;;;5049786;28;20100;-62
2023/09/28 09:39:06;;;;;;;5.32;2.17;;;24.20;51.40;;;;;;5049008;28;20124;-62
2023/09/28 09:41:46;;;;;;;6.65;2.00;;;24.20;51.30;;;;;;5026114;28;20032;-64
2023/09/28 09:44:19;;;;;;;5.68;1.90;;;24.20;51.20;;;;;;5049109;28;20031;-63
2023/09/28 09:46:48;;;;;;;6.80;2.03;;;24.20;51.10;;;;;;5049248;28;20041;-60
2023/09/28 09:49:19;;;;;;;7.07;2.05;;;24.20;51.10;;;;;;5028342;28;20163;-61
2023/09/28 09:51:46;;;;;;;7.07;2.30;;;24.20;51.00;;;;;;5048734;28;20033;-63
2023/09/28 09:54:16;;;;;;;5.78;1.70;;;24.20;51.00;;;;;;5049072;28;20118;-62
2023/09/28 09:56:47;;;;;;;7.32;2.13;;;24.20;50.90;;;;;;5029931;28;20029;-63
2023/09/28 09:59:18;;;;;;;6.47;2.03;;;24.20;50.80;;;;;;5043041;28;20028;-61
2023/09/28 10:01:48;;;;;;;5.70;2.05;;;24.20;50.80;;;;;;5049553;28;20151;-62
2023/09/28 10:04:18;;;;;;;5.97;1.95;;;24.20;50.70;;;;;;5049163;28;20056;-60
2023/09/28 10:06:56;;;;;;;7.10;2.35;;;24.20;50.60;;;;;;5047952;28;20424;-61
2023/09/28 10:09:23;;;;;;;5.32;2.03;;;24.20;50.60;;;;;;5046120;28;20448;-65
2023/09/28 10:11:50;;;;;;;5.97;2.00;;;24.30;50.60;;;;;;5031507;28;20317;-61
2023/09/28 10:14:19;;;;;;;5.93;2.10;;;24.20;50.50;;;;;;5028782;28;20060;-64
2023/09/28 10:16:51;;;;;;;5.20;2.17;;;24.20;50.40;;;;;;5045852;28;20440;-64
2023/09/28 10:19:20;;;;;;;5.15;2.00;;;24.30;50.40;;;;;;5047175;28;20048;-62
2023/09/28 10:21:47;;;;;;;5.97;1.80;;;24.20;50.40;;;;;;5012958;28;20044;-62
2023/09/28 10:24:14;;;;;;;5.18;1.83;;;24.30;50.40;;;;;;5046379;28;20033;-62
2023/09/28 10:26:51;;;;;;;7.35;2.63;;;24.30;50.40;;;;;;5024459;28;20150;-62
2023/09/28 10:29:32;;;;;;;8.50;2.50;;;24.30;50.30;;;;;;5046298;28;20101;-62
2023/09/28 10:31:58;;;;;;;5.88;2.30;;;24.30;50.30;;;;;;5046385;28;20149;-61
2023/09/28 10:34:27;;;;;;;9.15;2.00;;;24.30;50.30;;;;;;5025109;28;20067;-58
2023/09/28 10:37:18;;;;;;;6.22;1.65;;;24.30;50.20;;;;;;5042200;28;20310;-55
2023/09/28 10:39:54;;;;;;;3.22;1.40;;;24.40;50.50;;;;;;5034016;28;20102;-62
2023/09/28 10:42:24;;;;;;;5.50;1.90;;;24.30;50.70;;;;;;5040898;28;20077;-61
2023/09/28 10:44:54;;;;;;;6.40;2.20;;;24.30;50.70;;;;;;5042301;28;20033;-55
2023/09/28 10:47:21;;;;;;;5.22;1.65;;;24.30;50.70;;;;;;5041372;28;20048;-55
2023/09/28 10:49:52;;;;;;;8.73;2.05;;;24.30;50.70;;;;;;5041463;28;20045;-57
2023/09/28 10:52:17;;;;;;;5.95;2.13;;;24.30;50.60;;;;;;5039271;28;20517;-63
2023/09/28 10:54:44;;;;;;;7.55;2.25;;;24.40;50.70;;;;;;5039428;28;20021;-59
2023/09/28 10:57:10;;;;;;;5.30;1.52;;;24.40;50.60;;;;;;5039369;28;20026;-59
2023/09/28 10:59:40;;;;;;;6.05;2.05;;;24.40;50.60;;;;;;5038670;28;20148;-60
2023/09/28 11:02:07;;;;;;;7.80;2.65;;;24.40;50.60;;;;;;5037411;28;20108;-64
2023/09/28 11:04:37;;;;;;;9.10;2.97;;;24.50;50.60;;;;;;5016766;28;20047;-60
2023/09/28 11:07:05;;;;;;;8.15;2.13;;;24.50;50.50;;;;;;5040999;28;20063;-60
2023/09/28 11:09:31;;;;;;;6.50;2.13;;;24.50;50.50;;;;;;5037460;28;20117;-58
2023/09/28 11:11:57;;;;;;;6.47;2.13;;;24.50;50.50;;;;;;5022061;28;20061;-60
2023/09/28 11:14:26;;;;;;;6.13;1.92;;;24.50;50.40;;;;;;5039829;28;20029;-57
2023/09/28 11:16:53;;;;;;;5.88;2.15;;;24.50;50.40;;;;;;5041427;28;20029;-62
2023/09/28 11:19:20;;;;;;;5.65;2.10;;;24.60;50.30;;;;;;5038739;28;20029;-61
2023/09/28 11:21:46;;;;;;;10.15;2.50;;;24.60;50.20;;;;;;5040033;28;20119;-60
2023/09/28 11:24:12;;;;;;;6.03;1.67;;;24.60;50.20;;;;;;5026220;28;20056;-62
2023/09/28 11:26:39;;;;;;;5.30;1.92;;;24.60;50.10;;;;;;5040658;28;20384;-58
2023/09/28 11:29:05;;;;;;;6.00;2.38;;;24.60;50.00;;;;;;5047623;28;20099;-59
2023/09/28 11:31:35;;;;;;;5.43;1.75;;;24.60;49.90;;;;;;5035928;28;20073;-60
2023/09/28 11:34:05;;;;;;;9.95;2.42;;;24.70;50.00;;;;;;5040377;28;20318;-57
2023/09/28 11:36:32;;;;;;;8.07;1.95;;;24.70;50.00;;;;;;5040719;28;20095;-54
2023/09/28 11:39:00;;;;;;;5.10;2.15;;;24.70;49.90;;;;;;5040423;28;20049;-59
2023/09/28 11:41:26;;;;;;;5.38;2.10;;;24.70;49.80;;;;;;5035455;28;20544;-55
2023/09/28 11:43:54;;;;;;;7.13;1.85;;;24.80;49.60;;;;;;5036943;28;20021;-60
2023/09/28 11:46:32;;;;;;;4.80;1.80;;;24.80;49.30;;;;;;5042962;28;20104;-60
2023/09/28 11:49:04;;;;;;;5.63;2.20;;;24.90;49.10;;;;;;5041674;28;20102;-60
2023/09/28 11:51:34;;;;;;;5.13;1.73;;;25.00;48.90;;;;;;5035538;28;20052;-56
2023/09/28 11:54:02;;;;;;;4.53;1.52;;;25.00;48.80;;;;;;5036770;28;20037;-57
2023/09/28 11:56:28;;;;;;;4.55;1.75;;;25.10;48.50;;;;;;5042463;28;20321;-59
2023/09/28 11:58:55;;;;;;;3.97;1.50;;;25.20;48.50;;;;;;5039688;28;20021;-53
2023/09/28 12:01:21;;;;;;;3.72;1.67;;;25.20;48.30;;;;;;5044065;28;20044;-55
2023/09/28 12:03:47;;;;;;;5.20;1.95;;;25.20;48.10;;;;;;5041596;28;20100;-60
2023/09/28 12:06:14;;;;;;;5.68;2.03;;;25.30;48.00;;;;;;5043794;28;20037;-54
2023/09/28 12:08:41;;;;;;;4.30;1.75;;;25.30;47.90;;;;;;5044591;28;20094;-58
2023/09/28 12:11:07;;;;;;;3.65;1.48;;;25.30;47.70;;;;;;5019283;28;20033;-59
2023/09/28 12:13:33;;;;;;;3.70;1.65;;;25.40;47.70;;;;;;5044251;28;20037;-57
2023/09/28 12:16:00;;;;;;;3.88;1.67;;;25.40;47.60;;;;;;5045080;28;20045;-57
2023/09/28 12:18:27;;;;;;;4.22;1.55;;;25.40;47.50;;;;;;5043856;28;20021;-61
2023/09/28 12:20:53;;;;;;;4.38;1.50;;;25.40;47.50;;;;;;5044887;28;20044;-62
2023/09/28 12:23:19;;;;;;;3.90;1.48;;;25.40;47.50;;;;;;5046667;28;20100;-60
2023/09/28 12:25:44;;;;;;;3.17;1.35;;;25.30;47.50;;;;;;5045074;28;20056;-61
2023/09/28 12:28:10;;;;;;;4.60;1.50;;;25.30;47.60;;;;;;5046121;28;20124;-58
2023/09/28 12:30:36;;;;;;;3.15;1.30;;;25.30;47.60;;;;;;5040438;28;20035;-60
2023/09/28 12:33:02;;;;;;;3.17;1.40;;;25.30;47.60;;;;;;5046293;28;20204;-59
2023/09/28 12:35:28;;;;;;;2.63;1.15;;;25.20;47.60;;;;;;5045629;28;20041;-59
2023/09/28 12:37:55;;;;;;;3.08;1.35;;;25.20;47.70;;;;;;5041135;28;20543;-60
2023/09/28 12:40:21;;;;;;;3.70;1.55;;;25.20;47.70;;;;;;5045030;28;20108;-59
2023/09/28 12:42:47;;;;;;;4.07;1.58;;;25.20;47.70;;;;;;5038247;28;20450;-60
2023/09/28 12:45:13;;;;;;;3.63;1.88;;;25.20;47.80;;;;;;5040298;28;20041;-60
2023/09/28 12:47:38;;;;;;;5.18;1.92;;;25.10;47.80;;;;;;5043729;28;20053;-60
2023/09/28 12:50:05;;;;;;;6.18;1.83;;;25.10;47.80;;;;;;5044099;28;20100;-56